Time;durP1;ratioP1;P1;durP2;ratioP2;P2;SDS_P1;SDS_P2;PMS_P1;PMS_P2;Temp;Humidity;BMP_temperature;BMP_pressure;BME280_temperature;BME280_humidity;BME280_pressure;Samples;Min_cycle;Max_cycle;Signal;HPM_P1;HPM_P2
2024/03/24 00:00:43;;;;;;;0.80;0.80;;;7.90;38.70;;;;;;10380578;28;20250;-72
2024/03/24 00:05:45;;;;;;;1.03;0.93;;;7.90;38.40;;;;;;10387030;28;20246;-72
2024/03/24 00:10:49;;;;;;;1.20;0.90;;;8.00;38.30;;;;;;10398964;28;20754;-73
2024/03/24 00:15:52;;;;;;;2.07;0.97;;;8.00;38.30;;;;;;10385853;28;20254;-72
2024/03/24 00:20:54;;;;;;;0.80;0.80;;;8.00;38.20;;;;;;10383897;28;20246;-72
2024/03/24 00:25:57;;;;;;;1.27;0.80;;;8.00;38.20;;;;;;10382981;28;20274;-72
2024/03/24 00:31:00;;;;;;;1.60;0.90;;;8.00;38.50;;;;;;10386356;28;20252;-72
2024/03/24 00:36:02;;;;;;;1.20;0.70;;;8.00;38.20;;;;;;10384490;28;20250;-72
2024/03/24 00:41:06;;;;;;;1.37;0.80;;;8.00;38.30;;;;;;10387996;28;20250;-72
2024/03/24 00:46:08;;;;;;;1.60;0.90;;;8.00;38.40;;;;;;10385769;28;20947;-72
2024/03/24 00:51:10;;;;;;;1.87;0.90;;;8.00;38.30;;;;;;10385209;28;20304;-72
2024/03/24 00:56:14;;;;;;;1.67;1.13;;;8.00;38.40;;;;;;10387806;28;20241;-72
2024/03/24 01:01:16;;;;;;;1.27;0.80;;;8.00;38.80;;;;;;10391410;28;20257;-72
2024/03/24 01:06:18;;;;;;;1.00;0.77;;;8.00;38.30;;;;;;10387696;28;20261;-72
2024/03/24 01:11:22;;;;;;;1.53;0.80;;;7.90;38.20;;;;;;10387577;28;20277;-72
2024/03/24 01:16:24;;;;;;;1.20;0.80;;;7.90;38.40;;;;;;10385180;28;20249;-72
2024/03/24 01:21:26;;;;;;;2.00;0.90;;;7.90;38.20;;;;;;10383098;28;20279;-72
2024/03/24 01:26:30;;;;;;;1.30;0.90;;;7.90;38.40;;;;;;10383225;28;20252;-72
2024/03/24 01:31:32;;;;;;;2.00;0.80;;;7.90;38.80;;;;;;10382640;28;20273;-72
2024/03/24 01:36:34;;;;;;;1.53;0.90;;;7.90;38.60;;;;;;10385058;28;20295;-72
2024/03/24 01:41:38;;;;;;;0.93;0.80;;;7.80;38.40;;;;;;10384064;28;20241;-72
2024/03/24 01:46:42;;;;;;;1.53;0.70;;;7.80;39.10;;;;;;10388768;28;20260;-72
2024/03/24 01:51:44;;;;;;;2.00;0.87;;;7.80;38.90;;;;;;10389537;28;20710;-72
2024/03/24 01:56:48;;;;;;;1.83;1.00;;;7.80;38.80;;;;;;10378827;28;20257;-72
2024/03/24 02:01:50;;;;;;;1.00;0.80;;;7.80;39.10;;;;;;10383353;28;20707;-72
2024/03/24 02:06:52;;;;;;;1.70;0.90;;;7.80;39.10;;;;;;10382886;28;20253;-72
2024/03/24 02:11:57;;;;;;;1.27;0.90;;;7.80;39.10;;;;;;10382449;28;20241;-72
2024/03/24 02:16:59;;;;;;;1.27;0.80;;;7.80;39.10;;;;;;10385286;28;20237;-72
2024/03/24 02:22:01;;;;;;;1.50;0.83;;;7.80;39.10;;;;;;10379123;28;20305;-72
2024/03/24 02:27:05;;;;;;;2.57;0.90;;;7.70;39.00;;;;;;10386082;28;20735;-72
2024/03/24 02:32:08;;;;;;;0.93;0.80;;;7.70;39.00;;;;;;10381997;28;20264;-72
2024/03/24 02:37:10;;;;;;;1.53;0.90;;;7.80;39.10;;;;;;10386614;28;20253;-72
2024/03/24 02:42:13;;;;;;;2.10;0.93;;;7.80;39.10;;;;;;10385875;28;20257;-73
2024/03/24 02:47:15;;;;;;;1.37;0.70;;;7.70;39.00;;;;;;10381082;28;20238;-73
2024/03/24 02:52:18;;;;;;;1.70;0.90;;;7.60;38.90;;;;;;10382053;28;20285;-73
2024/03/24 02:57:21;;;;;;;1.37;0.97;;;7.60;38.90;;;;;;10382198;28;20264;-73
2024/03/24 03:02:24;;;;;;;1.00;0.80;;;7.60;39.00;;;;;;10378866;28;20249;-73
2024/03/24 03:07:26;;;;;;;2.23;0.90;;;7.60;38.90;;;;;;10383398;28;20668;-73
2024/03/24 03:12:31;;;;;;;0.87;0.87;;;7.60;38.90;;;;;;10375713;28;20249;-73
2024/03/24 03:17:33;;;;;;;2.20;0.87;;;7.60;38.90;;;;;;10381827;28;20269;-73
2024/03/24 03:22:35;;;;;;;1.83;1.00;;;7.50;38.80;;;;;;10385463;28;20339;-73
2024/03/24 03:27:39;;;;;;;0.90;0.90;;;7.50;38.80;;;;;;10381104;28;20693;-73
2024/03/24 03:32:42;;;;;;;1.90;1.10;;;7.30;39.10;;;;;;10382040;28;20387;-73
2024/03/24 03:37:44;;;;;;;1.03;0.90;;;7.20;39.10;;;;;;10383220;28;20269;-73
2024/03/24 03:42:47;;;;;;;1.70;1.10;;;7.20;39.10;;;;;;10391671;28;20746;-73
2024/03/24 03:47:49;;;;;;;1.60;1.00;;;7.20;39.60;;;;;;10392323;28;20315;-73
2024/03/24 03:52:53;;;;;;;1.30;1.10;;;7.20;39.00;;;;;;10381946;28;20367;-73
2024/03/24 03:57:56;;;;;;;1.13;1.03;;;7.20;39.00;;;;;;10386854;28;20252;-73
2024/03/24 04:02:59;;;;;;;1.13;0.93;;;7.20;39.50;;;;;;10387608;28;20295;-73
2024/03/24 04:08:01;;;;;;;1.03;0.80;;;7.20;39.40;;;;;;10386908;28;20246;-73
2024/03/24 04:13:05;;;;;;;0.97;0.90;;;7.20;39.70;;;;;;10385959;28;20245;-73
2024/03/24 04:18:07;;;;;;;1.40;0.90;;;7.20;40.20;;;;;;10384344;28;20711;-73
2024/03/24 04:23:09;;;;;;;1.30;0.93;;;7.30;39.70;;;;;;10383553;28;21010;-73
2024/03/24 04:28:13;;;;;;;0.90;0.90;;;7.40;40.00;;;;;;10388436;28;20273;-72
2024/03/24 04:33:15;;;;;;;1.90;1.50;;;7.40;40.20;;;;;;10384295;28;20326;-73
2024/03/24 04:38:17;;;;;;;1.37;1.30;;;7.50;39.80;;;;;;10385441;28;20300;-73
2024/03/24 04:43:21;;;;;;;1.60;1.20;;;7.50;39.80;;;;;;10382915;28;20387;-73
2024/03/24 04:48:23;;;;;;;1.20;1.10;;;7.50;40.20;;;;;;10389087;28;20245;-73
2024/03/24 04:53:26;;;;;;;1.30;1.20;;;7.60;40.20;;;;;;10389622;28;20758;-73
2024/03/24 04:58:30;;;;;;;1.63;0.97;;;7.50;39.90;;;;;;10385179;28;20711;-73
2024/03/24 05:03:32;;;;;;;1.00;0.90;;;7.50;40.40;;;;;;10383386;28;20304;-73
2024/03/24 05:08:37;;;;;;;1.17;0.90;;;7.50;40.00;;;;;;10387676;28;20253;-72
2024/03/24 05:13:40;;;;;;;1.00;1.00;;;7.40;40.00;;;;;;10387992;28;20262;-73
2024/03/24 05:18:42;;;;;;;0.83;0.83;;;7.40;40.20;;;;;;10384947;28;20638;-73
2024/03/24 05:23:45;;;;;;;1.50;1.00;;;7.40;39.70;;;;;;10378713;28;20311;-73
2024/03/24 05:28:48;;;;;;;0.80;0.80;;;7.30;39.80;;;;;;10386275;28;20253;-73
2024/03/24 05:33:51;;;;;;;1.00;1.00;;;7.30;40.20;;;;;;10378598;28;20271;-73
2024/03/24 05:38:53;;;;;;;1.50;1.40;;;7.20;40.00;;;;;;10381358;28;20249;-73
2024/03/24 05:43:56;;;;;;;1.10;1.00;;;7.20;39.90;;;;;;10384117;28;20245;-73
2024/03/24 05:48:59;;;;;;;1.13;0.80;;;7.20;40.40;;;;;;10383567;28;20249;-72
2024/03/24 05:54:01;;;;;;;1.50;1.40;;;7.20;40.10;;;;;;10381886;28;20253;-73
2024/03/24 05:59:05;;;;;;;1.03;1.03;;;7.10;40.20;;;;;;10380701;28;20237;-73
2024/03/24 06:04:07;;;;;;;0.90;0.90;;;7.10;40.60;;;;;;10381037;28;20257;-73
2024/03/24 06:09:10;;;;;;;1.00;0.90;;;7.10;40.50;;;;;;10376647;28;20241;-73
2024/03/24 06:14:13;;;;;;;1.17;1.10;;;7.10;40.50;;;;;;10381203;28;20789;-73
2024/03/24 06:19:15;;;;;;;0.70;0.70;;;7.20;40.90;;;;;;10379595;28;20249;-73
2024/03/24 06:24:18;;;;;;;0.97;0.93;;;7.30;40.70;;;;;;10386669;28;20268;-73
2024/03/24 06:29:21;;;;;;;0.90;0.90;;;7.40;40.70;;;;;;10382689;28;20303;-72
2024/03/24 06:34:24;;;;;;;1.57;1.00;;;7.40;41.00;;;;;;10380526;28;20252;-72
2024/03/24 06:39:27;;;;;;;0.90;0.90;;;7.50;40.50;;;;;;10376652;28;20250;-73
2024/03/24 06:44:35;;;;;;;1.83;1.30;;;7.60;40.70;;;;;;10379481;28;20820;-73
2024/03/24 06:49:37;;;;;;;1.70;1.17;;;7.70;41.00;;;;;;10377337;28;20268;-72
2024/03/24 06:54:42;;;;;;;1.00;1.00;;;7.70;40.60;;;;;;10392054;28;20253;-73
2024/03/24 06:59:46;;;;;;;1.50;1.40;;;7.80;40.70;;;;;;10395088;28;20253;-73
2024/03/24 07:04:48;;;;;;;1.70;1.40;;;7.80;41.00;;;;;;10378539;28;20269;-73
2024/03/24 07:09:50;;;;;;;1.37;1.23;;;7.80;40.80;;;;;;10381840;28;20291;-72
2024/03/24 07:14:54;;;;;;;1.30;1.20;;;7.80;40.70;;;;;;10388441;28;20741;-73
2024/03/24 07:19:57;;;;;;;1.40;1.30;;;7.80;40.90;;;;;;10391126;28;20268;-72
2024/03/24 07:24:59;;;;;;;2.07;1.70;;;7.80;40.80;;;;;;10385228;28;20249;-72
2024/03/24 07:30:02;;;;;;;1.87;1.50;;;7.90;40.80;;;;;;10385149;28;20794;-72
2024/03/24 07:35:05;;;;;;;2.40;1.93;;;7.90;40.70;;;;;;10389935;28;20245;-73
2024/03/24 07:40:08;;;;;;;2.70;2.03;;;7.90;40.50;;;;;;10391333;28;20268;-73
2024/03/24 07:45:12;;;;;;;2.53;2.20;;;8.00;40.70;;;;;;10387615;28;20288;-73
2024/03/24 07:50:14;;;;;;;1.50;1.40;;;8.10;41.70;;;;;;10384966;28;20258;-72
2024/03/24 07:55:18;;;;;;;1.10;1.00;;;8.20;40.30;;;;;;10388442;28;20257;-73
2024/03/24 08:00:22;;;;;;;1.50;1.30;;;8.20;40.30;;;;;;10390314;28;20257;-73
2024/03/24 08:05:24;;;;;;;1.33;1.20;;;8.30;40.50;;;;;;10382947;28;20718;-73
2024/03/24 08:10:26;;;;;;;1.43;1.20;;;8.30;40.10;;;;;;10381828;28;20315;-73
2024/03/24 08:15:31;;;;;;;1.50;1.10;;;8.40;40.30;;;;;;10350662;28;20254;-72
2024/03/24 08:20:33;;;;;;;1.10;1.00;;;8.50;39.70;;;;;;10373673;28;20921;-72
2024/03/24 08:25:36;;;;;;;1.67;1.20;;;8.60;39.70;;;;;;10347660;28;21457;-72
2024/03/24 08:30:41;;;;;;;1.13;1.10;;;8.60;39.70;;;;;;10343119;28;20259;-73
2024/03/24 08:35:44;;;;;;;0.80;0.80;;;8.60;39.70;;;;;;10363737;28;20321;-73
2024/03/24 08:40:46;;;;;;;1.33;0.90;;;8.60;39.70;;;;;;10348079;28;20890;-73
2024/03/24 08:45:50;;;;;;;1.27;1.00;;;8.70;39.80;;;;;;10345337;28;20251;-73
2024/03/24 08:50:52;;;;;;;1.30;0.97;;;8.80;39.90;;;;;;10381902;28;20257;-73
2024/03/24 08:55:55;;;;;;;1.00;1.00;;;8.80;39.30;;;;;;10382732;28;20290;-73
2024/03/24 09:00:58;;;;;;;2.03;1.80;;;8.90;38.80;;;;;;10352593;28;20716;-73
2024/03/24 09:06:01;;;;;;;1.97;1.60;;;9.00;38.10;;;;;;10342992;28;20238;-73
2024/03/24 09:11:03;;;;;;;0.93;0.90;;;9.00;38.30;;;;;;10341614;28;20257;-73
2024/03/24 09:16:07;;;;;;;0.83;0.83;;;9.10;37.60;;;;;;10350158;28;20254;-73
2024/03/24 09:21:11;;;;;;;1.07;0.83;;;9.10;37.10;;;;;;10343141;28;20650;-73
2024/03/24 09:26:13;;;;;;;0.90;0.80;;;9.10;37.40;;;;;;10343679;28;20701;-73
2024/03/24 09:31:17;;;;;;;1.17;0.70;;;9.20;37.00;;;;;;10345652;28;20303;-73
2024/03/24 09:36:19;;;;;;;0.70;0.70;;;9.20;36.30;;;;;;10339374;28;20662;-73
2024/03/24 09:41:26;;;;;;;2.00;0.90;;;9.30;36.50;;;;;;10338588;28;20355;-73
2024/03/24 09:46:30;;;;;;;1.07;0.93;;;9.30;36.40;;;;;;10332714;28;20615;-73
2024/03/24 09:51:34;;;;;;;1.10;0.90;;;9.30;36.50;;;;;;10337397;28;20313;-72
2024/03/24 09:56:37;;;;;;;1.27;0.90;;;9.40;37.60;;;;;;10332816;28;20305;-72
2024/03/24 10:01:41;;;;;;;0.73;0.70;;;9.60;37.70;;;;;;10336417;28;20314;-72
2024/03/24 10:06:43;;;;;;;1.50;0.90;;;9.80;37.30;;;;;;10335128;28;20357;-73
2024/03/24 10:11:45;;;;;;;0.73;0.73;;;10.10;36.40;;;;;;10338062;28;20985;-72
2024/03/24 10:16:49;;;;;;;0.90;0.70;;;10.30;36.10;;;;;;10330159;28;20346;-72
2024/03/24 10:21:53;;;;;;;0.80;0.80;;;10.60;34.00;;;;;;10329053;28;20337;-72
2024/03/24 10:26:59;;;;;;;1.40;1.13;;;10.70;34.10;;;;;;10328686;28;20452;-72
2024/03/24 10:32:03;;;;;;;1.20;1.10;;;10.80;33.40;;;;;;10346490;28;20300;-71
2024/03/24 10:37:09;;;;;;;1.30;1.20;;;10.80;32.70;;;;;;10328831;28;20253;-72
2024/03/24 10:42:16;;;;;;;2.10;1.50;;;10.80;31.80;;;;;;10334094;28;20369;-71
2024/03/24 10:47:20;;;;;;;1.47;1.37;;;10.80;33.00;;;;;;10332317;28;20844;-72
2024/03/24 10:52:24;;;;;;;2.00;1.80;;;10.80;33.20;;;;;;10322173;28;20300;-71
2024/03/24 10:57:27;;;;;;;1.63;1.53;;;10.80;32.70;;;;;;10328131;28;20313;-72
2024/03/24 11:02:31;;;;;;;2.60;1.50;;;10.70;32.60;;;;;;10325981;28;20362;-72
2024/03/24 11:07:34;;;;;;;1.63;1.53;;;10.60;32.20;;;;;;10328354;28;20375;-72
2024/03/24 11:12:38;;;;;;;3.00;1.57;;;10.60;33.00;;;;;;10344691;28;20313;-72
2024/03/24 11:17:42;;;;;;;3.43;1.73;;;10.60;32.80;;;;;;10331191;28;20301;-72
2024/03/24 11:22:45;;;;;;;1.40;1.30;;;10.50;33.00;;;;;;10327069;28;20340;-72
2024/03/24 11:27:48;;;;;;;1.50;1.40;;;10.60;33.20;;;;;;10329593;28;20326;-73
2024/03/24 11:32:52;;;;;;;1.67;1.23;;;10.60;33.40;;;;;;10325194;28;20392;-73
2024/03/24 11:37:55;;;;;;;1.67;1.40;;;10.60;33.00;;;;;;10326720;28;20310;-72
2024/03/24 11:42:58;;;;;;;1.37;1.20;;;10.60;33.10;;;;;;10326726;28;20388;-72
2024/03/24 11:48:33;;;;;;;1.30;1.20;;;10.60;33.00;;;;;;10322324;28;20346;-72
2024/03/24 11:53:36;;;;;;;1.37;1.23;;;10.60;32.70;;;;;;10322667;28;20334;-72
2024/03/24 11:58:38;;;;;;;2.03;1.50;;;10.50;33.30;;;;;;10334284;28;20254;-73
2024/03/24 12:03:42;;;;;;;2.17;1.30;;;10.50;33.50;;;;;;10348134;28;20313;-72
2024/03/24 12:08:46;;;;;;;1.43;1.30;;;10.50;33.30;;;;;;10346315;28;20319;-72
2024/03/24 12:13:48;;;;;;;1.40;1.27;;;10.60;33.20;;;;;;10339412;28;20682;-72
2024/03/24 12:18:52;;;;;;;1.67;1.57;;;10.50;33.70;;;;;;10340213;28;20288;-72
2024/03/24 12:23:54;;;;;;;2.03;1.83;;;10.30;33.70;;;;;;10342096;28;20659;-72
2024/03/24 12:28:58;;;;;;;2.20;2.00;;;10.10;34.00;;;;;;10348295;28;20821;-72
2024/03/24 12:34:02;;;;;;;1.93;1.83;;;10.00;34.70;;;;;;10336658;28;20317;-72
2024/03/24 12:39:05;;;;;;;2.00;1.80;;;9.90;35.70;;;;;;10341411;28;20234;-73
2024/03/24 12:44:07;;;;;;;2.03;1.83;;;9.90;36.20;;;;;;10356305;28;20255;-72
2024/03/24 12:49:19;;;;;;;1.90;1.70;;;9.90;36.30;;;;;;10342310;28;20969;-72
2024/03/24 12:54:24;;;;;;;2.03;1.80;;;10.00;34.50;;;;;;10347659;28;20297;-72
2024/03/24 12:59:26;;;;;;;2.23;2.03;;;10.10;35.00;;;;;;10333502;28;20258;-72
2024/03/24 13:04:30;;;;;;;2.87;1.70;;;10.20;35.00;;;;;;10341502;28;20658;-72
2024/03/24 13:09:33;;;;;;;2.00;1.80;;;10.20;35.30;;;;;;10344298;28;20624;-72
2024/03/24 13:14:35;;;;;;;1.90;1.70;;;10.00;35.60;;;;;;10335913;28;20309;-72
2024/03/24 13:19:46;;;;;;;2.23;1.90;;;9.90;36.80;;;;;;10332247;28;20329;-73
2024/03/24 13:24:53;;;;;;;2.03;1.93;;;9.80;37.20;;;;;;10335286;28;20318;-72
2024/03/24 13:29:56;;;;;;;2.07;1.87;;;9.80;37.30;;;;;;10349153;28;20390;-73
2024/03/24 13:34:59;;;;;;;2.90;2.40;;;9.80;37.10;;;;;;10335382;28;20301;-72
2024/03/24 13:40:22;;;;;;;2.47;2.10;;;9.80;37.40;;;;;;10366327;28;20328;-72
2024/03/24 13:45:29;;;;;;;3.50;2.00;;;9.70;38.00;;;;;;10348778;28;20365;-72
2024/03/24 13:50:35;;;;;;;2.33;2.13;;;9.80;37.80;;;;;;10333525;28;20250;-72
2024/03/24 13:55:38;;;;;;;2.83;2.13;;;9.80;37.30;;;;;;10334457;28;20886;-73
2024/03/24 14:00:40;;;;;;;4.30;3.40;;;9.90;37.20;;;;;;10334127;28;20313;-72
2024/03/24 14:05:45;;;;;;;2.60;2.40;;;10.00;36.10;;;;;;10330123;28;20531;-73
2024/03/24 14:10:47;;;;;;;2.53;2.27;;;10.10;36.00;;;;;;10347187;28;20321;-72
2024/03/24 14:16:07;;;;;;;2.77;2.33;;;10.20;35.60;;;;;;10350605;28;20322;-72
2024/03/24 14:21:17;;;;;;;2.40;2.20;;;10.20;34.90;;;;;;10330259;28;20711;-72
2024/03/24 14:26:20;;;;;;;2.97;2.33;;;10.20;35.00;;;;;;10330860;28;20317;-73
2024/03/24 14:31:22;;;;;;;2.50;1.97;;;10.20;35.20;;;;;;10355831;28;20315;-72
2024/03/24 14:36:35;;;;;;;2.17;1.97;;;10.20;35.30;;;;;;10377174;28;20963;-72
2024/03/24 14:41:47;;;;;;;2.17;1.97;;;10.30;34.80;;;;;;10378426;28;20254;-73
2024/03/24 14:47:02;;;;;;;2.10;1.80;;;10.30;34.50;;;;;;10331127;28;20328;-73
2024/03/24 14:52:06;;;;;;;1.93;1.73;;;10.20;35.00;;;;;;10335585;28;20301;-73
2024/03/24 14:57:08;;;;;;;1.83;1.60;;;10.10;35.00;;;;;;10337629;28;21287;-73
2024/03/24 15:02:11;;;;;;;2.57;1.90;;;9.80;36.20;;;;;;10336641;28;20257;-73
2024/03/24 15:07:16;;;;;;;2.00;1.80;;;9.60;36.70;;;;;;10335211;28;20246;-73
2024/03/24 15:12:18;;;;;;;1.90;1.70;;;9.40;37.30;;;;;;10340798;28;20273;-73
2024/03/24 15:17:21;;;;;;;1.93;1.80;;;9.20;37.20;;;;;;10339698;28;20258;-73
2024/03/24 15:22:26;;;;;;;2.20;2.00;;;9.00;37.60;;;;;;10336433;28;20292;-73
2024/03/24 15:27:29;;;;;;;2.40;2.00;;;8.80;37.90;;;;;;10335260;28;20983;-73
2024/03/24 15:32:31;;;;;;;2.40;2.20;;;8.70;37.90;;;;;;10342407;28;20250;-73
2024/03/24 15:37:34;;;;;;;2.50;2.20;;;8.60;38.10;;;;;;10346167;28;20314;-73
2024/03/24 15:42:37;;;;;;;2.70;2.37;;;8.60;38.40;;;;;;10340206;28;20319;-73
2024/03/24 15:47:39;;;;;;;1.90;1.80;;;8.50;38.30;;;;;;10344697;28;20313;-73
2024/03/24 15:52:43;;;;;;;2.33;2.10;;;8.50;39.00;;;;;;10347325;28;20249;-73
2024/03/24 15:57:55;;;;;;;3.73;3.37;;;8.40;39.60;;;;;;10348142;28;20254;-73
2024/03/24 16:02:57;;;;;;;3.77;2.90;;;8.50;40.00;;;;;;10345078;28;20261;-73
2024/03/24 16:08:00;;;;;;;3.07;2.77;;;8.50;39.70;;;;;;10345833;28;20285;-73
2024/03/24 16:13:08;;;;;;;3.50;2.13;;;8.50;39.70;;;;;;10339560;28;20254;-73
2024/03/24 16:18:10;;;;;;;3.10;2.00;;;8.50;40.00;;;;;;10344838;28;20250;-73
2024/03/24 16:23:15;;;;;;;2.00;1.80;;;8.50;39.70;;;;;;10343836;28;20308;-73
2024/03/24 16:28:19;;;;;;;2.17;2.00;;;8.40;40.00;;;;;;10340351;28;20258;-73
2024/03/24 16:33:26;;;;;;;2.43;1.70;;;8.40;39.60;;;;;;10345250;28;21095;-73
2024/03/24 16:38:30;;;;;;;2.70;2.13;;;8.20;39.70;;;;;;10355692;28;20247;-73
2024/03/24 16:43:33;;;;;;;3.07;2.17;;;8.10;40.10;;;;;;10341895;28;20273;-73
2024/03/24 16:48:36;;;;;;;1.80;1.70;;;8.00;39.80;;;;;;10347273;28;20742;-73
2024/03/24 16:53:39;;;;;;;2.03;1.77;;;8.00;39.80;;;;;;10352498;28;20305;-73
2024/03/24 16:58:42;;;;;;;2.47;1.30;;;7.90;40.30;;;;;;10348982;28;20315;-73
2024/03/24 17:03:45;;;;;;;1.93;1.77;;;8.00;39.90;;;;;;10376340;28;20303;-73
2024/03/24 17:08:50;;;;;;;1.97;1.33;;;8.00;39.90;;;;;;10378316;28;20253;-73
2024/03/24 17:13:53;;;;;;;1.53;1.37;;;8.10;40.50;;;;;;10381246;28;20268;-73
2024/03/24 17:18:55;;;;;;;1.40;1.30;;;8.10;40.10;;;;;;10385846;28;20245;-72
2024/03/24 17:23:59;;;;;;;3.03;2.30;;;8.10;40.20;;;;;;10381227;28;20320;-73
2024/03/24 17:29:01;;;;;;;1.63;1.43;;;8.10;40.40;;;;;;10344014;28;20273;-73
2024/03/24 17:34:03;;;;;;;2.73;1.70;;;8.20;40.40;;;;;;10339561;28;20261;-73
2024/03/24 17:39:07;;;;;;;3.47;2.67;;;8.20;40.50;;;;;;10344279;28;20250;-73
2024/03/24 17:44:10;;;;;;;2.30;2.10;;;8.20;40.60;;;;;;10344171;28;20266;-74
2024/03/24 17:49:12;;;;;;;2.13;1.67;;;8.30;40.30;;;;;;10341880;28;20316;-73
2024/03/24 17:54:16;;;;;;;1.60;1.50;;;8.30;40.20;;;;;;10357945;28;20265;-73
2024/03/24 17:59:19;;;;;;;1.40;1.30;;;8.30;40.50;;;;;;10342484;28;20743;-73
2024/03/24 18:04:21;;;;;;;1.73;1.20;;;8.40;40.40;;;;;;10342637;28;20316;-73
2024/03/24 18:14:45;;;;;;;1.50;1.30;;;8.30;40.30;;;;;;10343774;28;20238;-73
2024/03/24 18:19:47;;;;;;;1.47;1.20;;;8.30;40.40;;;;;;10343136;28;20250;-73
2024/03/24 18:24:53;;;;;;;2.70;2.50;;;8.20;40.30;;;;;;10345393;28;20261;-73
2024/03/24 18:29:56;;;;;;;2.83;2.40;;;8.20;40.40;;;;;;10341605;28;20258;-74
2024/03/24 18:34:58;;;;;;;2.50;2.30;;;8.30;40.00;;;;;;10347907;28;20727;-73
2024/03/24 18:40:01;;;;;;;2.33;2.03;;;8.30;40.00;;;;;;10332689;28;20254;-73
2024/03/24 18:45:05;;;;;;;2.17;1.97;;;8.30;40.10;;;;;;10366548;28;20253;-73
2024/03/24 18:50:07;;;;;;;1.50;1.40;;;8.30;39.80;;;;;;10333304;28;20322;-73
2024/03/24 18:55:11;;;;;;;1.93;1.50;;;8.30;39.70;;;;;;10331042;28;20285;-73
2024/03/24 19:00:14;;;;;;;1.43;1.30;;;8.30;39.50;;;;;;10335068;28;20317;-73
2024/03/24 19:05:17;;;;;;;1.83;1.20;;;8.30;39.50;;;;;;10330055;28;20249;-73
2024/03/24 19:10:24;;;;;;;1.30;1.20;;;8.40;39.60;;;;;;10339050;28;20681;-73
2024/03/24 19:15:26;;;;;;;1.20;1.10;;;8.40;39.60;;;;;;10347429;28;20299;-73
2024/03/24 19:20:28;;;;;;;1.47;1.00;;;8.40;39.60;;;;;;10343434;28;20313;-72
2024/03/24 19:25:32;;;;;;;1.83;1.07;;;8.40;39.60;;;;;;10348948;28;20382;-72
2024/03/24 19:30:34;;;;;;;1.83;1.10;;;8.40;39.60;;;;;;10342310;28;20308;-72
2024/03/24 19:35:36;;;;;;;1.70;1.17;;;8.40;39.60;;;;;;10345709;28;20252;-72
2024/03/24 19:40:40;;;;;;;1.20;1.10;;;8.40;39.60;;;;;;10348065;28;20262;-73
2024/03/24 19:45:42;;;;;;;1.77;1.30;;;8.50;39.70;;;;;;10346446;28;20242;-72
2024/03/24 19:50:45;;;;;;;1.57;1.00;;;8.50;39.60;;;;;;10347684;28;20254;-73
2024/03/24 19:55:49;;;;;;;1.47;1.00;;;8.50;39.30;;;;;;10347537;28;20243;-72
2024/03/24 20:00:53;;;;;;;1.87;1.07;;;8.50;39.50;;;;;;10349172;28;20320;-73
2024/03/24 20:05:56;;;;;;;1.43;1.30;;;8.50;39.60;;;;;;10351494;28;20250;-72
2024/03/24 20:10:59;;;;;;;1.37;1.20;;;8.60;39.20;;;;;;10344275;28;20270;-72
2024/03/24 20:16:02;;;;;;;2.27;1.47;;;8.60;39.10;;;;;;10346706;28;20243;-73
2024/03/24 20:21:05;;;;;;;1.73;1.23;;;8.60;39.10;;;;;;10350046;28;20246;-72
2024/03/24 20:26:09;;;;;;;1.77;1.40;;;8.60;39.10;;;;;;10345268;28;20254;-73
2024/03/24 20:31:12;;;;;;;1.23;1.13;;;8.60;39.30;;;;;;10341884;28;20264;-73
2024/03/24 20:36:14;;;;;;;1.33;1.17;;;8.60;39.20;;;;;;10338463;28;20363;-73
2024/03/24 20:41:20;;;;;;;1.83;1.20;;;8.50;39.10;;;;;;10343317;28;20262;-72
2024/03/24 20:46:22;;;;;;;1.47;1.20;;;8.60;39.10;;;;;;10360540;28;20270;-73
2024/03/24 20:51:25;;;;;;;1.77;1.27;;;8.60;39.20;;;;;;10345760;28;20250;-72
2024/03/24 20:56:29;;;;;;;2.43;1.10;;;8.60;39.10;;;;;;10343180;28;20284;-72
2024/03/24 21:01:32;;;;;;;1.23;1.07;;;8.60;39.30;;;;;;10343775;28;20254;-72
2024/03/24 21:06:34;;;;;;;3.13;1.40;;;8.60;39.30;;;;;;10347124;28;20581;-73
2024/03/24 21:11:37;;;;;;;2.33;1.67;;;8.60;39.60;;;;;;10346513;28;20308;-73
2024/03/24 21:16:40;;;;;;;1.80;1.43;;;8.50;39.70;;;;;;10346085;28;20296;-73
2024/03/24 21:21:45;;;;;;;1.50;1.40;;;8.40;39.60;;;;;;10356948;28;20256;-72
2024/03/24 21:26:49;;;;;;;1.63;1.20;;;8.40;39.60;;;;;;10384378;28;20260;-73
2024/03/24 21:31:52;;;;;;;2.13;1.47;;;8.30;39.50;;;;;;10380110;28;20809;-73
2024/03/24 21:36:54;;;;;;;1.60;1.30;;;8.30;39.50;;;;;;10381210;28;20249;-72
2024/03/24 21:42:12;;;;;;;2.00;1.40;;;8.30;39.50;;;;;;10385715;28;20848;-72
2024/03/24 21:47:14;;;;;;;1.60;1.33;;;8.30;39.50;;;;;;10383741;28;20327;-73
2024/03/24 21:52:16;;;;;;;1.37;1.20;;;8.40;39.60;;;;;;10382037;28;20261;-73
2024/03/24 21:57:20;;;;;;;1.40;1.30;;;8.40;39.60;;;;;;10379958;28;20261;-73
2024/03/24 22:02:22;;;;;;;3.27;1.57;;;8.40;39.60;;;;;;10383745;28;20259;-73
2024/03/24 22:07:26;;;;;;;2.00;1.43;;;8.40;39.60;;;;;;10385865;28;20249;-73
2024/03/24 22:12:30;;;;;;;2.17;1.30;;;8.50;39.70;;;;;;10380340;28;20249;-73
2024/03/24 22:17:35;;;;;;;2.17;1.57;;;8.50;39.70;;;;;;10387390;28;20245;-73
2024/03/24 22:22:37;;;;;;;1.80;1.47;;;8.40;39.60;;;;;;10384195;28;20779;-73
2024/03/24 22:27:41;;;;;;;2.20;1.43;;;8.40;39.60;;;;;;10379929;28;20257;-73
2024/03/24 22:32:44;;;;;;;2.00;1.30;;;8.50;39.70;;;;;;10381639;28;20241;-73
2024/03/24 22:37:46;;;;;;;1.53;1.30;;;8.50;39.70;;;;;;10383257;28;20253;-72
2024/03/24 22:42:50;;;;;;;2.07;1.30;;;8.50;39.70;;;;;;10383205;28;20339;-73
2024/03/24 22:47:52;;;;;;;1.67;1.13;;;8.50;39.70;;;;;;10374435;28;20316;-72
2024/03/24 22:52:55;;;;;;;1.70;1.10;;;8.50;39.60;;;;;;10378615;28;20794;-72
2024/03/24 22:57:58;;;;;;;1.40;1.20;;;8.50;39.60;;;;;;10381976;28;20250;-73
2024/03/24 23:03:00;;;;;;;1.53;1.20;;;8.40;39.60;;;;;;10396994;28;20253;-72
2024/03/24 23:08:03;;;;;;;1.37;1.20;;;8.40;39.60;;;;;;10378227;28;20314;-72
2024/03/24 23:13:06;;;;;;;1.70;1.30;;;8.40;39.60;;;;;;10380000;28;20249;-72
2024/03/24 23:18:09;;;;;;;1.10;1.10;;;8.40;39.60;;;;;;10376423;28;20268;-72
2024/03/24 23:23:11;;;;;;;1.83;1.23;;;8.40;39.60;;;;;;10394748;28;20249;-72
2024/03/24 23:28:15;;;;;;;1.20;1.10;;;8.40;39.60;;;;;;10385568;28;20706;-72
2024/03/24 23:33:17;;;;;;;1.30;1.10;;;8.40;39.60;;;;;;10382325;28;20265;-72
2024/03/24 23:38:19;;;;;;;1.13;1.03;;;8.40;39.60;;;;;;10377666;28;20734;-72
2024/03/24 23:43:23;;;;;;;1.63;1.10;;;8.40;39.60;;;;;;10382865;28;20265;-73
2024/03/24 23:48:25;;;;;;;1.30;1.10;;;8.40;39.60;;;;;;10373758;28;20315;-73
2024/03/24 23:53:27;;;;;;;1.93;1.27;;;8.40;39.60;;;;;;10383490;28;20253;-72
2024/03/24 23:58:31;;;;;;;1.70;1.27;;;8.40;39.60;;;;;;10384142;28;20250;-72
